Latest Weather Observations for Liawenee

IDT60801

Issued at 10:51 am EDT Friday 15 November 2019 (issued every 10 minutes, with the page automatically refreshed every 10 minutes)

About weather observations | Map of weather stations | Latest weather observations for TAS | Other Formats
Station Details ID: 096033 Name: LIAWENEE Lat: -41.90 Lon: 146.67 Height: 1057.0 m
Data from the previous 72 hours. | See also: Recent months at Liawenee
Date/Time
EDT
Temp
°C
App
Temp
°C
Dew
Point
°C
Rel
Hum
%
Delta-T
°C
Wind Press
QNH
hPa
Press
MSL
hPa
Rain since
9am
mm
Dir  Spd
km/h
Gust
km/h
Spd
kts
Gust
kts
15/10:47am 7.8 -0.4 0.3 59 3.2 WSW 33 54 18 29 999.6 998.3 0.0
15/10:30am 6.7 -2.4 -0.3 61 2.9 WSW 37 54 20 29 999.7 998.4 0.0
15/10:00am 6.4 -3.5 -0.8 60 3.0 WSW 41 61 22 33 999.8 998.5 0.0
15/09:42am 5.4 -5.5 -1.5 61 2.7 WSW 46 67 25 36 999.8 998.5 0.0
15/09:30am 5.3 -4.2 -0.7 65 2.4 WSW 39 54 21 29 999.8 998.5 0.0
15/09:17am 5.5 -3.3 1.1 73 1.9 WSW 37 61 20 33 999.8 998.5 0.0
15/09:00am 4.1 -5.2 2.9 92 0.5 WSW 41 56 22 30 999.8 998.5 0.0
15/08:38am 5.0 -4.4 0.2 71 2.0 W 39 57 21 31 999.3 998.1 0.0
15/08:30am 5.6 -3.3 1.0 72 1.9 W 37 52 20 28 999.2 998.0 0.0
15/08:10am 5.0 -3.6 0.2 71 2.0 WSW 35 54 19 29 999.1 997.8 0.0
15/08:00am 4.1 -6.2 -0.7 71 1.9 WSW 43 59 23 32 999.0 997.7 0.0
15/07:30am 4.0 -6.2 -0.2 74 1.7 WSW 43 61 23 33 998.8 997.5 0.0
15/07:00am 3.6 -5.2 1.5 86 0.9 W 37 56 20 30 999.0 997.7 0.0
15/06:41am 3.4 -3.7 3.3 99 0.0 W 30 46 16 25 999.2 998.0 0.0
15/06:30am 3.4 -2.0 2.7 95 0.3 W 20 28 11 15 999.3 998.1 0.0
15/06:00am 3.2 -2.1 3.1 99 0.0 WSW 20 32 11 17 999.3 998.1 0.0
15/05:30am 3.6 -0.3 3.5 99 0.0 W 13 24 7 13 999.1 997.8 0.0
15/05:00am 3.4 -1.7 3.1 98 0.1 W 19 33 10 18 999.0 997.7 0.0
15/04:30am 3.7 -1.3 3.6 99 0.0 WSW 19 32 10 17 998.7 997.4 0.0
15/04:00am 4.2 -1.7 4.1 99 0.0 W 24 39 13 21 998.5 997.2 0.0
15/03:30am 4.4 -1.0 4.4 100 0.0 WSW 22 33 12 18 998.6 997.3 0.0
15/03:00am 4.7 -0.1 4.6 99 0.0 W 19 30 10 16 998.5 997.2 0.0
15/02:30am 4.2 -3.2 4.1 99 0.0 W 32 46 17 25 998.5 997.2 0.0
15/02:18am 4.2 -2.4 4.1 99 0.0 W 28 48 15 26 998.7 997.4 0.0
15/02:00am 4.1 -2.9 4.0 99 0.0 W 30 44 16 24 999.0 997.7 0.0
15/01:30am 4.3 -3.2 3.7 96 0.3 W 32 52 17 28 999.2 998.0 0.0
15/01:04am 4.9 -1.6 4.8 99 0.0 W 28 48 15 26 999.2 998.0 0.0
15/01:00am 4.7 -1.0 4.7 100 0.0 W 24 39 13 21 999.3 998.1 0.0
15/12:30am 4.6 -1.9 4.6 100 0.0 W 28 46 15 25 999.7 998.4 0.0
15/12:21am 4.6 -1.9 4.6 100 0.0 WNW 28 46 15 25 999.8 998.5 0.0
15/12:00am 4.6 -1.9 4.6 100 0.0 W 28 43 15 23 999.8 998.5 0.0
 
Date/Time
EDT
Temp
°C
App
Temp
°C
Dew
Point
°C
Rel
Hum
%
Delta-T
°C
Wind Press
QNH
hPa
Press
MSL
hPa
Rain since
9am
mm
Dir  Spd
km/h
Gust
km/h
Spd
kts
Gust
kts
14/11:30pm 4.7 -3.1 4.7 100 0.0 W 35 54 19 29 999.5 998.2 0.0
14/11:00pm 5.2 -4.3 4.8 97 0.2 W 44 63 24 34 1000.0 998.8 0.0
14/10:30pm 5.1 -4.8 5.0 99 0.0 W 46 69 25 37 999.7 998.4 0.0
14/10:00pm 4.8 -4.2 4.8 100 0.0 W 41 67 22 36 999.7 998.4 0.0
14/09:30pm 4.9 -6.1 4.9 100 0.0 W 52 80 28 43 999.9 998.6 0.0
14/09:00pm 4.8 -5.9 4.7 99 0.0 W 50 70 27 38 999.6 998.3 0.0
14/08:30pm 5.0 -6.3 3.5 90 0.7 W 52 76 28 41 999.7 998.4 0.0
14/08:00pm 5.4 -4.5 4.7 95 0.3 W 46 67 25 36 999.7 998.4 0.0
14/07:30pm 6.1 -4.7 4.1 87 0.9 W 50 70 27 38 1000.1 998.9 0.0
14/07:00pm 6.5 -5.7 3.8 83 1.2 W 57 83 31 45 1000.3 999.1 0.0
14/06:30pm 7.5 -3.4 3.7 77 1.7 W 50 80 27 43 1000.3 999.1 0.0
14/06:00pm 7.9 -4.2 3.4 73 2.1 W 56 85 30 46 1000.3 999.1 0.0
14/05:30pm 8.7 -2.2 3.3 69 2.5 W 50 74 27 40 1000.1 998.9 0.0
14/05:00pm 9.0 -2.0 3.0 66 2.8 W 50 70 27 38 1001.0 999.8 0.0
14/04:30pm 9.5 -1.5 3.0 64 3.0 W 50 69 27 37 1001.0 999.8 0.0
14/04:06pm 10.5 0.4 3.5 62 3.3 W 46 65 25 35 1001.4 1000.2 0.0
14/04:00pm 10.4 0.6 3.4 62 3.3 W 44 61 24 33 1001.6 1000.3 0.0
14/03:32pm 10.6 0.0 3.2 60 3.4 W 48 67 26 36 1001.7 1000.5 0.0
14/03:30pm 10.8 0.7 3.6 61 3.4 W 46 63 25 34 1001.3 1000.1 0.0
14/03:00pm 11.2 1.2 4.4 63 3.3 W 46 65 25 35 1001.9 1000.7 0.0
14/02:36pm 10.3 0.8 3.8 64 3.0 W 43 61 23 33 1002.0 1000.8 0.0
14/02:30pm 10.9 0.9 4.1 63 3.2 W 46 61 25 33 1002.0 1000.8 0.0
14/02:00pm 11.3 1.7 4.3 62 3.4 WSW 44 61 24 33 1002.1 1000.9 0.0
14/01:32pm 11.7 0.8 3.5 57 3.9 WSW 50 69 27 37 1002.0 1000.8 0.0
14/01:30pm 11.2 -0.2 2.8 56 3.9 WSW 52 69 28 37 1002.0 1000.8 0.0
14/01:00pm 11.8 1.8 4.3 60 3.6 W 46 67 25 36 1001.9 1000.7 0.0
14/12:30pm 11.7 1.3 4.2 60 3.6 WSW 48 74 26 40 1001.7 1000.5 0.0
14/12:16pm 11.7 1.7 4.4 61 3.5 W 46 74 25 40 1001.9 1000.7 0.0
14/12:00pm 11.4 1.8 4.6 63 3.3 W 44 59 24 32 1002.0 1000.8 0.0
14/11:30am 10.9 1.4 4.8 66 2.9 W 44 65 24 35 1002.2 1001.0 0.0
14/11:04am 10.8 1.4 5.3 69 2.7 W 44 65 24 35 1002.0 1000.8 0.0
14/11:00am 11.4 2.4 6.3 71 2.6 W 43 57 23 31 1002.0 1000.8 0.0
14/10:30am 10.3 1.1 5.5 72 2.3 W 43 63 23 34 1002.3 1001.1 0.0
14/10:00am 10.2 1.2 6.4 77 1.9 W 43 63 23 34 1002.4 1001.2 0.0
14/09:30am 9.2 1.1 7.0 86 1.1 W 39 57 21 31 1002.3 1001.1 0.0
14/09:11am 8.7 0.9 6.5 86 1.1 W 37 56 20 30 1002.6 1001.4 0.0
14/09:00am 8.7 0.6 6.8 88 0.9 W 39 56 21 30 1002.6 1001.4 2.4
14/08:32am 7.9 -0.1 7.3 96 0.3 W 39 57 21 31 1002.6 1001.4 2.4
14/08:30am 7.8 -0.6 7.2 96 0.3 W 41 57 22 31 1002.7 1001.5 2.4
14/08:00am 7.0 -0.4 6.9 99 0.0 W 35 56 19 30 1002.3 1001.1 2.4
14/07:51am 6.8 -1.0 6.8 100 0.0 W 37 56 20 30 1002.2 1001.0 2.4
14/07:30am 6.3 -2.0 6.3 100 0.0 WSW 39 56 21 30 1002.1 1000.9 2.4
14/07:09am 6.0 -1.6 6.0 100 0.0 WSW 35 57 19 31 1002.2 1001.0 2.4
14/07:00am 6.0 -1.6 6.0 100 0.0 WSW 35 50 19 27 1002.2 1001.0 2.4
14/06:53am 5.9 -1.1 5.9 100 0.0 WSW 32 50 17 27 1002.3 1001.1 2.4
14/06:30am 5.7 -1.0 5.7 100 0.0 W 30 43 16 23 1002.2 1001.0 2.4
14/06:00am 5.4 -2.3 5.4 100 0.0 W 35 46 19 25 1002.2 1001.0 2.4
14/05:30am 5.4 -1.9 5.4 100 0.0 W 33 46 18 25 1002.2 1001.0 2.4
14/05:00am 5.0 -1.4 5.0 100 0.0 W 28 41 15 22 1002.2 1001.0 2.4
14/04:30am 5.0 0.3 5.0 100 0.0 W 19 28 10 15 1002.8 1001.6 2.4
14/04:00am 4.9 0.0 4.9 100 0.0 W 20 33 11 18 1003.0 1001.8 2.4
14/03:30am 4.6 -0.4 4.6 100 0.0 W 20 30 11 16 1003.3 1002.2 2.4
14/03:00am 4.6 0.5 4.6 100 0.0 W 15 24 8 13 1003.7 1002.5 2.4
14/02:30am 4.6 -0.2 4.6 100 0.0 W 19 32 10 17 1004.0 1002.8 2.4
14/02:00am 4.1 -0.8 4.1 100 0.0 W 19 26 10 14 1004.2 1003.1 2.4
14/01:30am 3.9 -1.2 3.9 100 0.0 W 20 32 11 17 1004.5 1003.4 2.4
14/01:00am 3.7 -2.2 3.7 100 0.0 WSW 24 32 13 17 1004.5 1003.4 2.4
14/12:30am 3.2 -2.8 3.2 100 0.0 WSW 24 30 13 16 1004.8 1003.6 2.4
14/12:00am 3.1 -1.6 3.0 99 0.0 W 17 26 9 14 1005.3 1004.2 2.4
 
Date/Time
EDT
Temp
°C
App
Temp
°C
Dew
Point
°C
Rel
Hum
%
Delta-T
°C
Wind Press
QNH
hPa
Press
MSL
hPa
Rain since
9am
mm
Dir  Spd
km/h
Gust
km/h
Spd
kts
Gust
kts
13/11:30pm 2.7 -3.0 2.6 99 0.0 WSW 22 30 12 16 1005.2 1004.1 2.4
13/11:00pm 3.0 -3.5 2.9 99 0.0 WSW 26 35 14 19 1005.2 1004.1 2.4
13/10:30pm 2.3 -4.0 1.6 95 0.3 SW 24 37 13 20 1005.1 1004.0 2.4
13/10:00pm 2.4 -5.4 1.5 94 0.4 SW 32 46 17 25 1004.5 1003.4 2.4
13/09:30pm 2.7 -7.6 2.4 98 0.1 WSW 46 65 25 35 1004.0 1002.8 2.4
13/09:18pm 2.8 -7.6 2.2 96 0.3 WSW 46 65 25 35 1003.8 1002.6 2.4
13/09:00pm 2.7 -6.8 1.8 94 0.4 WSW 41 57 22 31 1003.8 1002.6 2.4
13/08:30pm 3.0 -5.5 2.9 99 0.0 WSW 37 57 20 31 1004.0 1002.8 2.4
13/08:29pm 2.9 -5.3 2.8 99 0.0 WSW 35 54 19 29 1004.0 1002.8 2.4
13/08:00pm 3.1 -5.0 1.3 88 0.7 SW 33 46 18 25 1003.9 1002.7 2.4
13/07:30pm 3.9 -5.8 0.4 78 1.4 WSW 41 57 22 31 1003.4 1002.3 2.4
13/07:27pm 4.0 -5.3 0.5 78 1.4 WSW 39 57 21 31 1003.3 1002.2 2.4
13/07:00pm 4.1 -6.3 2.3 88 0.8 WSW 46 61 25 33 1002.9 1001.7 2.4
13/06:30pm 5.6 -4.9 1.5 75 1.7 WSW 46 65 25 35 1002.3 1001.1 2.4
13/06:00pm 5.1 -6.9 1.8 79 1.4 WSW 54 74 29 40 1002.0 1000.8 2.4
13/05:30pm 5.8 -6.2 1.3 73 1.9 WSW 54 80 29 43 1001.7 1000.5 2.4
13/05:00pm 6.1 -6.6 0.9 69 2.2 WSW 57 80 31 43 1001.2 1000.0 2.4
13/04:30pm 6.9 -4.7 3.9 81 1.4 WSW 54 74 29 40 1000.9 999.7 2.4
13/04:00pm 5.3 -5.7 5.2 99 0.0 WSW 52 74 28 40 1000.6 999.3 2.4
13/03:30pm 6.8 -4.2 5.1 89 0.8 WSW 52 72 28 39 1000.3 999.1 2.4
13/03:00pm 5.2 -6.7 5.1 99 0.0 WSW 57 78 31 42 1000.2 999.0 2.4
13/02:30pm 6.5 -5.2 6.2 98 0.1 WSW 57 80 31 43 999.9 998.6 2.4
13/02:00pm 6.2 -4.6 6.2 100 0.0 WSW 52 70 28 38 999.7 998.4 2.4
13/01:30pm 7.2 -2.9 7.2 100 0.0 WSW 50 70 27 38 999.3 998.1 2.2
13/01:00pm 5.1 -4.7 5.1 100 0.0 W 46 65 25 35 999.3 998.1 1.6
13/12:30pm 5.1 -3.4 5.1 100 0.0 W 39 57 21 31 999.5 998.2 1.2
13/12:00pm 5.8 -2.6 5.8 100 0.0 W 39 59 21 32 999.1 997.8 0.0
13/11:30am 7.4 -1.8 6.5 94 0.4 W 44 63 24 34 999.2 998.0 0.0
13/11:00am 6.4 -3.2 6.4 100 0.0 W 46 69 25 37 999.7 998.4 0.0
13/10:31am 6.1 -3.9 6.0 99 0.0 W 48 67 26 36 999.9 998.6 0.0
13/10:30am 6.2 -3.9 5.9 98 0.1 W 48 65 26 35 999.9 998.6 0.0
13/10:00am 5.6 -3.8 5.5 99 0.0 W 44 65 24 35 1000.0 998.8 0.0
13/09:30am 5.4 -3.9 5.1 98 0.1 W 43 61 23 33 999.8 998.5 0.0
13/09:00am 4.4 -5.1 3.8 96 0.3 W 43 61 23 33 1000.0 998.8 1.0
13/08:39am 3.7 -6.0 2.8 94 0.4 WSW 43 61 23 33 999.8 998.5 1.0
13/08:30am 3.3 -6.4 3.0 98 0.1 WSW 43 57 23 31 999.9 998.6 1.0
13/08:00am 2.6 -7.3 2.5 99 0.0 WSW 44 63 24 34 999.8 998.5 1.0
13/07:30am 1.4 -7.8 1.3 99 0.0 WSW 39 59 21 32 999.9 998.6 1.0
13/07:10am 1.2 -6.9 1.1 99 0.0 WSW 33 63 18 34 1000.4 999.2 1.0
13/07:00am 1.1 -7.4 1.0 99 0.0 WSW 35 52 19 28 1000.6 999.3 1.0
13/06:44am 0.9 -7.2 0.9 100 0.0 WSW 33 57 18 31 1000.8 999.5 1.0
13/06:30am 0.8 -8.1 0.8 100 0.0 WSW 37 50 20 27 1000.6 999.3 1.0
13/06:17am 0.5 -8.1 0.5 100 0.0 WSW 35 56 19 30 1000.2 999.0 1.0
13/06:00am 0.5 -7.5 0.5 100 0.0 WSW 32 46 17 25 1000.3 999.1 1.0
13/05:32am 0.3 -7.0 0.3 100 0.0 WSW 28 50 15 27 1000.4 999.2 1.0
13/05:30am 0.2 -7.1 0.2 100 0.0 WSW 28 39 15 21 1000.3 999.1 1.0
13/05:00am -0.2 -8.3 -0.2 100 0.0 WSW 32 43 17 23 1000.0 998.8 1.0
13/04:43am -0.4 -8.5 -0.4 100 0.0 WSW 32 50 17 27 999.9 998.6 1.0
13/04:30am -0.6 -8.0 -0.6 100 0.0 WSW 28 43 15 23 1000.1 998.9 1.0
13/04:00am -0.8 -8.2 -0.8 100 0.0 WSW 28 43 15 23 1000.6 999.3 1.0
13/03:30am -0.9 -8.3 -0.9 100 0.0 SW 28 41 15 22 1000.9 999.7 1.0
13/03:00am -1.0 -10.5 -1.0 100 0.0 WSW 39 65 21 35 1001.1 999.9 1.0
13/02:32am -0.7 -9.1 -0.7 100 0.0 WSW 33 52 18 28 1000.7 999.4 1.0
13/02:30am -0.7 -8.9 -0.7 100 0.0 WSW 32 43 17 23 1000.7 999.4 1.0
13/02:08am -0.5 -8.3 -0.5 100 0.0 WSW 30 48 16 26 1000.6 999.3 1.0
13/02:00am -0.5 -8.3 -0.5 100 0.0 WSW 30 48 16 26 1000.6 999.3 1.0
13/01:59am -0.6 -8.0 -0.6 100 0.0 WSW 28 48 15 26 1000.6 999.3 1.0
13/01:30am -0.8 -6.1 -0.8 100 0.0 WSW 17 22 9 12 1000.7 999.4 1.0
13/01:00am -0.7 -8.1 -0.7 100 0.0 WSW 28 41 15 22 1000.9 999.7 0.8
13/12:30am -0.7 -10.6 -0.7 100 0.0 SW 41 59 22 32 1000.7 999.4 0.8
13/12:18am -0.6 -9.3 -0.6 100 0.0 WSW 35 56 19 30 1000.7 999.4 0.8
13/12:00am -0.9 -7.6 -0.9 100 0.0 WSW 24 35 13 19 1000.6 999.3 0.8
 
Date/Time
EDT
Temp
°C
App
Temp
°C
Dew
Point
°C
Rel
Hum
%
Delta-T
°C
Wind Press
QNH
hPa
Press
MSL
hPa
Rain since
9am
mm
Dir  Spd
km/h
Gust
km/h
Spd
kts
Gust
kts
12/11:31pm -0.6 -8.4 -0.6 100 0.0 WSW 30 50 16 27 1000.6 999.3 0.8
12/11:30pm -0.6 -8.0 -0.6 100 0.0 WSW 28 44 15 24 1000.6 999.3 0.8
12/11:00pm -0.6 -7.6 -0.6 100 0.0 WSW 26 39 14 21 1000.8 999.5 0.8
12/10:30pm -0.7 -8.1 -0.7 100 0.0 WSW 28 39 15 21 1000.4 999.2 0.8
12/10:00pm -0.4 -8.1 -0.4 100 0.0 WSW 30 43 16 23 1000.4 999.2 0.8
12/09:30pm -0.3 -7.3 -0.3 100 0.0 WSW 26 39 14 21 1000.1 998.9 0.8
12/09:00pm -0.3 -6.9 -0.3 100 0.0 WSW 24 32 13 17 1000.0 998.8 0.8
12/08:30pm 0.1 -7.2 0.0 99 0.0 W 28 46 15 25 999.6 998.3 0.8
12/08:28pm 0.1 -7.2 0.0 99 0.0 W 28 46 15 25 999.6 998.3 0.8
12/08:00pm 0.1 -7.9 0.1 100 0.0 WSW 32 43 17 23 999.3 998.1 0.8
12/07:30pm 0.6 -5.9 0.6 100 0.0 WSW 24 33 13 18 999.1 997.8 0.6
12/07:00pm 0.9 -5.9 0.9 100 0.0 WSW 26 39 14 21 998.8 997.5 0.6
12/06:30pm 2.0 -6.5 0.8 92 0.5 WSW 35 52 19 28 998.6 997.3 0.6
12/06:15pm 2.9 -5.6 0.6 85 0.9 WSW 35 63 19 34 998.3 997.1 0.6
12/06:00pm 2.6 -5.6 2.5 99 0.0 WSW 35 52 19 28 998.5 997.2 0.6
12/05:48pm 2.1 -5.3 2.1 100 0.0 WSW 30 50 16 27 998.5 997.2 0.6
12/05:30pm 1.8 -6.0 1.7 99 0.0 WSW 32 46 17 25 998.5 997.2 0.0
12/05:06pm 4.1 -4.2 -0.5 72 1.8 W 33 54 18 29 998.1 996.8 0.0
12/05:00pm 4.8 -3.9 -0.8 67 2.3 W 35 48 19 26 997.9 996.6 0.0
12/04:47pm 4.9 -3.3 0.5 73 1.8 W 33 52 18 28 997.9 996.6 0.0
12/04:30pm 5.1 -3.2 1.9 80 1.4 W 35 50 19 27 997.9 996.6 0.0
12/04:00pm 6.5 -2.2 -0.2 62 2.8 W 35 48 19 26 997.5 996.1 0.0
12/03:38pm 5.0 -2.6 0.8 74 1.8 WSW 30 48 16 26 997.7 996.4 0.0
12/03:30pm 3.1 -5.5 2.8 98 0.1 WSW 37 50 20 27 997.7 996.4 0.0
12/03:00pm 6.1 -3.6 0.4 67 2.4 W 41 61 22 33 997.8 996.5 0.0
12/02:43pm 4.9 -4.1 2.3 83 1.1 W 39 57 21 31 997.9 996.6 0.0
12/02:30pm 4.5 -4.8 2.7 88 0.8 W 41 57 22 31 997.8 996.5 0.0
12/02:06pm 7.8 -1.7 -0.4 56 3.4 W 39 57 21 31 997.3 996.0 0.0
12/02:00pm 6.6 -3.8 -1.8 55 3.4 W 43 57 23 31 997.2 995.9 0.0
12/01:44pm 6.2 -4.0 -0.1 64 2.6 W 43 61 23 33 997.3 996.0 0.0
12/01:30pm 7.3 -1.7 2.2 70 2.2 W 39 52 21 28 997.5 996.1 0.0
12/01:13pm 6.9 -1.1 1.4 68 2.4 WSW 33 56 18 30 997.2 995.9 0.0
12/01:00pm 6.3 -1.6 2.0 74 1.9 WSW 33 48 18 26 997.2 995.9 0.0
12/12:36pm 6.8 -2.0 -0.9 58 3.1 W 35 54 19 29 997.2 995.9 0.0
12/12:30pm 6.3 -2.8 -0.9 60 2.9 WSW 37 52 20 28 997.3 996.0 0.0
12/12:12pm 5.6 -4.7 -0.7 64 2.5 WSW 43 63 23 34 997.5 996.1 0.0
12/12:00pm 5.2 -3.2 1.5 77 1.6 WSW 35 50 19 27 997.5 996.1 0.0
12/11:37am 5.2 -3.1 2.2 81 1.3 W 35 54 19 29 997.3 996.0 0.0
12/11:30am 5.9 -2.6 1.2 72 2.0 W 35 48 19 26 997.2 995.9 0.0
12/11:00am 5.5 -3.1 0.5 70 2.1 WSW 35 46 19 25 997.1 995.8 0.0

Other formats

Comma delimited format used in spreadsheet applications
http://www.bom.gov.au/fwo/IDT60801/IDT60801.95959.axf

JavaScript Object Notation format (JSON) in row-major order
http://www.bom.gov.au/fwo/IDT60801/IDT60801.95959.json

Data quality

Most of these data are generated automatically and are frequently updated. Quality checks on data are not normally performed. It is possible for incorrect values to appear. Refer to information at About Latest Weather Observations and please check the disclaimer before using these data.